X  Close Metar Aviation Weather Data     KPNS Pensacola International Airport
Temperature
70°F Temperature
52°F Dewpoint
53% Humidity



Wind
15 MPH
24 KM/H
7 M/S
13 KTS



20°
NNE
Current Conditions

Partly Cloudy Partly Cloudy
Pressure 1014.92 (hPa) - 29.97 (inHg)
Visibility 10 (mile) - 16.1 (km)
Airport
Airport-code KPNS

Location: Pensacola International Airport
Distance: 9 (mi)

Metar:
KPNS 301458Z 02013KT 10SM FEW080 21/11 A2997 RMK AO2 T02110106

Time: 30-09-2022 09:58 CDT